Time;durP1;ratioP1;P1;durP2;ratioP2;P2;SDS_P1;SDS_P2;PMS_P1;PMS_P2;Temp;Humidity;BMP_temperature;BMP_pressure;BME280_temperature;BME280_humidity;BME280_pressure;Samples;Min_cycle;Max_cycle;Signal;HPM_P1;HPM_P2
2023/10/04 00:00:25;;;;;;;24.33;23.48;;;13.20;99.90;;;;;;5073023;28;20279;-62
2023/10/04 00:02:54;;;;;;;26.42;25.50;;;13.10;99.90;;;;;;5073318;28;20231;-63
2023/10/04 00:05:22;;;;;;;24.42;23.55;;;13.10;99.90;;;;;;5073540;28;20215;-62
2023/10/04 00:07:50;;;;;;;27.27;26.27;;;13.20;99.90;;;;;;5071938;28;20207;-63
2023/10/04 00:10:20;;;;;;;28.60;27.60;;;13.20;99.90;;;;;;5071377;28;20327;-62
2023/10/04 00:12:47;;;;;;;25.13;24.23;;;13.20;99.90;;;;;;5071100;28;20323;-60
2023/10/04 00:15:14;;;;;;;22.70;21.90;;;13.20;99.90;;;;;;5070867;28;20207;-61
2023/10/04 00:17:42;;;;;;;34.30;33.10;;;13.20;99.90;;;;;;5070161;28;20217;-63
2023/10/04 00:20:10;;;;;;;32.33;31.17;;;13.20;99.90;;;;;;5070520;28;20225;-60
2023/10/04 00:22:39;;;;;;;25.27;24.37;;;13.20;99.90;;;;;;5070246;28;20259;-63
2023/10/04 00:25:11;;;;;;;21.17;20.38;;;13.10;99.90;;;;;;5070182;28;20872;-61
2023/10/04 00:27:41;;;;;;;21.10;20.30;;;13.10;99.90;;;;;;5070212;28;20222;-61
2023/10/04 00:30:15;;;;;;;20.27;19.58;;;13.00;99.90;;;;;;5070274;28;20207;-61
2023/10/04 00:32:42;;;;;;;17.90;17.27;;;13.10;99.90;;;;;;5070287;28;20331;-61
2023/10/04 00:35:11;;;;;;;23.03;22.20;;;13.10;99.90;;;;;;5070267;28;20211;-61
2023/10/04 00:37:38;;;;;;;19.17;18.50;;;13.20;99.90;;;;;;5069942;28;20614;-60
2023/10/04 00:40:14;;;;;;;19.63;18.93;;;13.20;99.90;;;;;;5069973;28;20678;-61
2023/10/04 00:42:43;;;;;;;20.88;20.15;;;13.10;99.90;;;;;;5070022;28;20341;-63
2023/10/04 00:45:13;;;;;;;22.80;22.00;;;13.00;99.90;;;;;;5070842;28;20211;-61
2023/10/04 00:47:42;;;;;;;26.05;25.15;;;12.90;99.90;;;;;;5070338;28;20769;-61
2023/10/04 00:50:15;;;;;;;24.77;23.88;;;12.80;99.90;;;;;;5070365;28;20215;-61
2023/10/04 00:52:47;;;;;;;24.77;23.90;;;12.70;99.90;;;;;;5070625;28;20649;-63
2023/10/04 00:55:16;;;;;;;24.93;24.07;;;12.60;99.90;;;;;;5059661;28;20286;-62
2023/10/04 00:57:48;;;;;;;25.42;24.52;;;12.60;99.90;;;;;;5066542;28;20268;-61
2023/10/04 01:00:17;;;;;;;23.77;22.97;;;12.60;99.90;;;;;;5070205;28;20255;-60
2023/10/04 01:02:44;;;;;;;22.70;21.90;;;12.70;99.90;;;;;;5069776;28;20231;-62
2023/10/04 01:05:14;;;;;;;22.20;21.40;;;12.70;99.90;;;;;;5070017;28;20238;-62
2023/10/04 01:07:42;;;;;;;29.55;28.52;;;12.70;99.90;;;;;;5069530;28;20215;-61
2023/10/04 01:10:14;;;;;;;30.90;29.80;;;12.80;99.90;;;;;;5070164;28;20610;-61
2023/10/04 01:12:41;;;;;;;29.60;28.60;;;12.80;99.90;;;;;;5069986;28;20328;-60
2023/10/04 01:15:28;;;;;;;33.53;32.33;;;12.90;99.90;;;;;;5069933;28;20294;-62
2023/10/04 01:17:55;;;;;;;26.70;25.80;;;12.90;99.90;;;;;;5068255;28;20212;-59
2023/10/04 01:20:24;;;;;;;29.60;28.58;;;12.90;99.90;;;;;;5074599;28;20213;-62
2023/10/04 01:22:52;;;;;;;29.70;28.63;;;12.90;99.90;;;;;;5076245;28;20553;-59
2023/10/04 01:25:19;;;;;;;24.88;24.00;;;12.90;99.90;;;;;;5074114;28;20213;-62
2023/10/04 01:27:47;;;;;;;26.93;26.00;;;12.90;99.90;;;;;;5073801;28;20210;-61
2023/10/04 01:30:16;;;;;;;29.90;28.80;;;12.90;99.90;;;;;;5072901;28;20734;-62
2023/10/04 01:32:43;;;;;;;28.00;27.00;;;12.90;99.90;;;;;;5073506;28;20310;-62
2023/10/04 01:35:11;;;;;;;27.40;26.40;;;12.90;99.90;;;;;;5073782;28;20208;-61
2023/10/04 01:37:39;;;;;;;33.10;31.93;;;12.80;99.90;;;;;;5073490;28;20213;-61
2023/10/04 01:40:12;;;;;;;34.17;32.97;;;12.80;99.90;;;;;;5073489;28;20214;-61
2023/10/04 01:42:41;;;;;;;25.52;24.63;;;12.80;99.90;;;;;;5073551;28;20231;-61
2023/10/04 01:45:11;;;;;;;27.70;26.73;;;12.80;99.90;;;;;;5073302;28;20631;-60
2023/10/04 01:47:38;;;;;;;32.93;31.73;;;12.80;99.90;;;;;;5072921;28;20210;-60
2023/10/04 01:50:07;;;;;;;26.70;25.77;;;12.80;99.90;;;;;;5073213;28;20294;-62
2023/10/04 01:52:35;;;;;;;32.63;31.50;;;12.70;99.90;;;;;;5073179;28;20223;-60
2023/10/04 01:55:04;;;;;;;30.00;28.97;;;12.60;99.90;;;;;;5073248;28;20576;-60
2023/10/04 01:57:32;;;;;;;23.23;22.40;;;12.60;99.90;;;;;;5073146;28;20242;-63
2023/10/04 01:59:59;;;;;;;20.40;19.70;;;12.50;99.90;;;;;;5073414;28;20290;-60
2023/10/04 02:02:26;;;;;;;29.40;28.38;;;12.50;99.90;;;;;;5075826;28;20251;-61
2023/10/04 02:04:54;;;;;;;31.50;30.40;;;12.50;99.90;;;;;;5076423;28;20230;-61
2023/10/04 02:07:23;;;;;;;27.90;26.90;;;12.50;99.90;;;;;;5080483;28;20294;-61
2023/10/04 02:09:51;;;;;;;27.57;26.57;;;12.50;99.90;;;;;;5078471;28;20866;-61
2023/10/04 02:12:18;;;;;;;31.70;30.60;;;12.50;99.90;;;;;;5084510;28;20230;-61
2023/10/04 02:14:48;;;;;;;26.13;25.23;;;12.40;99.90;;;;;;5087212;28;20211;-62
2023/10/04 02:17:17;;;;;;;26.83;25.85;;;12.40;99.90;;;;;;5087178;28;20226;-60
2023/10/04 02:19:44;;;;;;;27.17;26.17;;;12.30;99.90;;;;;;5087380;28;20219;-61
2023/10/04 02:22:12;;;;;;;29.97;28.87;;;12.40;99.90;;;;;;5074839;28;20254;-63
2023/10/04 02:24:39;;;;;;;30.57;29.50;;;12.30;99.90;;;;;;5073973;28;20207;-62
2023/10/04 02:27:07;;;;;;;26.93;25.97;;;12.30;99.90;;;;;;5073795;28;20230;-61
2023/10/04 02:29:35;;;;;;;25.73;24.83;;;12.30;99.90;;;;;;5073043;28;20207;-62
2023/10/04 02:32:08;;;;;;;24.73;23.87;;;12.30;99.90;;;;;;5071793;28;20242;-62
2023/10/04 02:34:36;;;;;;;28.00;27.03;;;12.30;99.90;;;;;;5072784;28;20237;-62
2023/10/04 02:37:06;;;;;;;25.95;25.05;;;12.20;99.90;;;;;;5072824;28;20235;-62
2023/10/04 02:39:33;;;;;;;26.23;25.33;;;12.20;99.90;;;;;;5073021;28;20241;-60
2023/10/04 02:42:00;;;;;;;26.20;25.30;;;12.10;99.90;;;;;;5072267;28;20227;-60
2023/10/04 02:44:27;;;;;;;23.17;22.38;;;12.10;99.90;;;;;;5072688;28;20226;-61
2023/10/04 02:46:55;;;;;;;24.90;24.03;;;12.10;99.90;;;;;;5072390;28;20739;-61
2023/10/04 02:49:23;;;;;;;23.80;22.97;;;12.10;99.90;;;;;;5072522;28;20211;-62
2023/10/04 02:51:50;;;;;;;25.37;24.50;;;12.10;99.90;;;;;;5073349;28;20289;-62
2023/10/04 02:54:17;;;;;;;25.17;24.30;;;12.10;99.90;;;;;;5080355;28;20292;-60
2023/10/04 02:56:46;;;;;;;26.73;25.77;;;12.10;99.90;;;;;;5082034;28;20214;-63
2023/10/04 02:59:17;;;;;;;25.93;25.03;;;12.20;99.90;;;;;;5083352;28;20314;-61
2023/10/04 03:01:44;;;;;;;27.83;26.83;;;12.30;99.90;;;;;;5081095;28;20265;-61
2023/10/04 03:04:14;;;;;;;26.83;25.90;;;12.30;99.90;;;;;;5078334;28;20203;-61
2023/10/04 03:06:42;;;;;;;25.52;24.63;;;12.40;99.90;;;;;;5072114;28;20604;-62
2023/10/04 03:09:09;;;;;;;28.63;27.67;;;12.40;99.90;;;;;;5071803;28;20285;-61
2023/10/04 03:11:37;;;;;;;24.70;23.83;;;12.40;99.90;;;;;;5071735;28;20269;-61
2023/10/04 03:14:06;;;;;;;24.75;23.88;;;12.40;99.90;;;;;;5071293;28;20235;-62
2023/10/04 03:16:34;;;;;;;23.85;23.00;;;12.40;99.90;;;;;;5071804;28;20270;-62
2023/10/04 03:19:03;;;;;;;22.55;21.75;;;12.30;99.90;;;;;;5071633;28;20681;-61
2023/10/04 03:21:30;;;;;;;22.07;21.27;;;12.30;99.90;;;;;;5072301;28;20633;-61
2023/10/04 03:24:00;;;;;;;20.20;19.48;;;12.30;99.90;;;;;;5071864;28;20210;-61
2023/10/04 03:26:29;;;;;;;22.60;21.83;;;12.30;99.90;;;;;;5073622;28;20234;-61
2023/10/04 03:28:56;;;;;;;27.13;26.17;;;12.20;99.90;;;;;;5076756;28;20272;-60
2023/10/04 03:31:24;;;;;;;26.07;25.17;;;12.20;99.90;;;;;;5077557;28;20211;-61
2023/10/04 03:33:53;;;;;;;24.73;23.85;;;12.20;99.90;;;;;;5078100;28;20233;-60
2023/10/04 03:36:19;;;;;;;25.77;24.87;;;12.30;99.90;;;;;;5072952;28;20211;-60
2023/10/04 03:38:49;;;;;;;22.90;22.08;;;12.30;99.90;;;;;;5072298;28;20215;-61
2023/10/04 03:41:19;;;;;;;25.23;24.33;;;12.30;99.90;;;;;;5071933;28;20215;-60
2023/10/04 03:43:46;;;;;;;24.07;23.23;;;12.40;99.90;;;;;;5071588;28;20211;-61
2023/10/04 03:46:18;;;;;;;21.03;20.33;;;12.40;99.90;;;;;;5071961;28;20231;-61
2023/10/04 03:48:45;;;;;;;26.77;25.87;;;12.50;99.90;;;;;;5071214;28;20549;-62
2023/10/04 03:51:13;;;;;;;23.40;22.60;;;12.50;99.90;;;;;;5071159;28;20613;-61
2023/10/04 03:53:41;;;;;;;25.33;24.42;;;12.50;99.90;;;;;;5071245;28;20259;-62
2023/10/04 03:56:10;;;;;;;23.50;22.70;;;12.60;99.90;;;;;;5071020;28;20218;-60
2023/10/04 03:58:40;;;;;;;21.30;20.50;;;12.60;99.90;;;;;;5069433;28;20223;-61
2023/10/04 04:01:08;;;;;;;23.17;22.38;;;12.60;99.90;;;;;;5071394;28;20264;-60
2023/10/04 04:03:44;;;;;;;20.42;19.73;;;12.60;99.90;;;;;;5151434;27;20619;-61
2023/10/04 04:06:11;;;;;;;22.03;21.23;;;12.60;99.90;;;;;;5151157;27;20200;-62
2023/10/04 04:08:38;;;;;;;23.77;22.98;;;12.60;99.90;;;;;;5149397;27;20204;-59
2023/10/04 04:11:06;;;;;;;23.30;22.50;;;12.50;99.90;;;;;;5149344;27;20208;-61
2023/10/04 04:13:36;;;;;;;19.97;19.27;;;12.50;99.90;;;;;;5149393;27;20296;-61
2023/10/04 04:16:09;;;;;;;19.07;18.37;;;12.50;99.90;;;;;;5149256;27;20218;-61
2023/10/04 04:18:37;;;;;;;19.85;19.15;;;12.40;99.90;;;;;;5149171;27;20239;-61
2023/10/04 04:21:06;;;;;;;20.43;19.73;;;12.40;99.90;;;;;;5149295;27;20421;-62
2023/10/04 04:23:34;;;;;;;19.00;18.37;;;12.30;99.90;;;;;;5148877;27;20233;-60
2023/10/04 04:26:05;;;;;;;19.57;18.87;;;12.20;99.90;;;;;;5149243;27;20208;-62
2023/10/04 04:28:35;;;;;;;20.47;19.77;;;12.20;99.90;;;;;;5148940;27;20201;-63
2023/10/04 04:31:05;;;;;;;19.97;19.17;;;12.20;99.90;;;;;;5149154;27;20209;-61
2023/10/04 04:33:32;;;;;;;20.10;19.40;;;12.10;99.90;;;;;;5149396;27;20220;-62
2023/10/04 04:36:09;;;;;;;22.40;21.63;;;12.10;99.90;;;;;;5157273;27;20288;-61
2023/10/04 04:38:38;;;;;;;21.37;20.60;;;12.10;99.90;;;;;;5149395;27;20201;-63
2023/10/04 04:41:12;;;;;;;20.95;20.25;;;12.10;99.90;;;;;;5148782;27;20213;-61
2023/10/04 04:43:39;;;;;;;20.83;20.10;;;12.20;99.90;;;;;;5148488;27;20584;-60
2023/10/04 04:46:13;;;;;;;22.45;21.65;;;12.10;99.90;;;;;;5148897;27;20685;-62
2023/10/04 04:48:41;;;;;;;20.60;19.90;;;12.20;99.90;;;;;;5148746;27;20209;-61
2023/10/04 04:51:12;;;;;;;23.93;23.10;;;12.20;99.90;;;;;;5148943;27;20209;-62
2023/10/04 04:53:40;;;;;;;21.42;20.70;;;12.20;99.90;;;;;;5148706;27;20224;-62
2023/10/04 04:56:12;;;;;;;23.60;22.80;;;12.20;99.90;;;;;;5148150;27;20215;-62
2023/10/04 04:58:39;;;;;;;21.23;20.48;;;12.20;99.90;;;;;;5148587;27;20336;-62
2023/10/04 05:01:08;;;;;;;18.40;17.70;;;12.10;99.90;;;;;;5148407;27;20212;-63
2023/10/04 05:03:35;;;;;;;24.57;23.67;;;12.20;99.90;;;;;;5141168;27;20315;-63
2023/10/04 05:06:03;;;;;;;20.90;20.20;;;13.10;99.90;;;;;;5146397;27;20204;-63
2023/10/04 05:08:31;;;;;;;15.50;14.93;;;13.90;99.90;;;;;;5148065;27;20352;-63
2023/10/04 05:11:00;;;;;;;20.03;19.33;;;14.40;99.90;;;;;;5148607;27;20353;-66
2023/10/04 05:13:26;;;;;;;12.77;12.32;;;14.70;99.90;;;;;;5136729;27;20228;-64
2023/10/04 05:15:54;;;;;;;12.33;11.93;;;15.00;99.90;;;;;;5134866;27;20207;-63
2023/10/04 05:18:22;;;;;;;12.17;11.77;;;15.00;99.90;;;;;;5127262;27;20206;-63
2023/10/04 05:20:50;;;;;;;13.53;13.07;;;15.30;99.90;;;;;;5134198;27;20232;-63
2023/10/04 05:23:18;;;;;;;12.67;12.27;;;15.50;99.90;;;;;;5133782;27;20278;-64
2023/10/04 05:25:45;;;;;;;13.10;12.60;;;15.60;99.90;;;;;;5134294;27;20274;-63
2023/10/04 05:28:13;;;;;;;13.67;13.07;;;15.60;99.90;;;;;;5133664;27;20550;-63
2023/10/04 05:30:42;;;;;;;13.73;13.23;;;15.70;99.90;;;;;;5126207;27;20202;-65
2023/10/04 05:33:10;;;;;;;14.63;14.13;;;15.80;99.90;;;;;;5133565;27;20232;-63
2023/10/04 05:35:37;;;;;;;17.63;17.03;;;15.60;99.90;;;;;;5132491;27;20206;-65
2023/10/04 05:38:05;;;;;;;20.37;19.67;;;14.90;99.90;;;;;;5131501;27;20198;-63
2023/10/04 05:40:34;;;;;;;19.35;18.67;;;14.10;99.90;;;;;;5134374;27;20214;-65
2023/10/04 05:43:00;;;;;;;18.30;17.67;;;13.60;99.90;;;;;;5134014;27;20236;-64
2023/10/04 05:45:29;;;;;;;19.73;19.03;;;13.20;99.90;;;;;;5123141;27;20648;-65
2023/10/04 05:47:56;;;;;;;18.60;17.97;;;13.00;99.90;;;;;;5115159;27;20206;-65
2023/10/04 05:50:24;;;;;;;17.48;16.88;;;12.80;99.90;;;;;;5119251;27;20202;-66
2023/10/04 05:52:52;;;;;;;17.07;16.47;;;12.70;99.90;;;;;;5117731;27;20260;-65
2023/10/04 05:55:20;;;;;;;18.80;18.20;;;12.50;99.90;;;;;;5117940;27;20202;-63
2023/10/04 05:57:47;;;;;;;24.17;23.30;;;12.40;99.90;;;;;;5116035;27;20239;-67
2023/10/04 06:00:27;;;;;;;19.63;18.93;;;12.60;99.90;;;;;;5126253;27;20204;-66
2023/10/04 06:02:58;;;;;;;22.23;21.47;;;12.50;99.90;;;;;;5127189;27;20608;-66
2023/10/04 06:05:27;;;;;;;20.00;19.30;;;12.40;99.90;;;;;;5133455;27;20209;-67
2023/10/04 06:07:55;;;;;;;21.97;21.17;;;12.30;99.90;;;;;;5133237;27;20262;-67
2023/10/04 06:10:23;;;;;;;21.37;20.57;;;12.30;99.90;;;;;;5133171;27;20671;-67
2023/10/04 06:12:51;;;;;;;26.77;25.83;;;12.30;99.90;;;;;;5129573;27;20221;-66
2023/10/04 06:15:19;;;;;;;25.20;24.30;;;12.30;99.90;;;;;;5119967;27;20663;-67
2023/10/04 06:17:47;;;;;;;24.08;23.23;;;12.30;99.90;;;;;;5131598;27;20209;-66
2023/10/04 06:20:28;;;;;;;22.67;21.87;;;12.30;99.90;;;;;;5123212;27;20403;-65
2023/10/04 06:22:56;;;;;;;23.20;22.43;;;12.40;99.90;;;;;;5131080;27;20240;-66
2023/10/04 06:25:24;;;;;;;19.43;18.73;;;12.40;99.90;;;;;;5101022;27;20259;-66
2023/10/04 06:27:52;;;;;;;20.40;19.70;;;12.40;99.90;;;;;;5095406;28;20202;-67
2023/10/04 06:30:22;;;;;;;18.87;18.17;;;12.50;99.90;;;;;;5107795;27;20205;-66
2023/10/04 06:32:50;;;;;;;22.73;21.93;;;12.40;99.90;;;;;;5098747;28;20700;-65
2023/10/04 06:35:18;;;;;;;20.13;19.43;;;12.30;99.90;;;;;;5106451;27;20210;-65
2023/10/04 06:37:45;;;;;;;25.20;24.33;;;12.30;99.90;;;;;;5107425;27;20275;-66
2023/10/04 06:40:16;;;;;;;19.23;18.53;;;12.30;99.90;;;;;;5108116;27;20205;-67
2023/10/04 06:42:47;;;;;;;24.15;23.25;;;12.40;99.90;;;;;;5107075;27;20259;-66
2023/10/04 06:45:15;;;;;;;24.67;23.83;;;12.40;99.90;;;;;;5117281;27;20212;-67
2023/10/04 06:47:45;;;;;;;29.70;28.63;;;12.40;99.90;;;;;;5115257;27;20210;-67
2023/10/04 06:50:14;;;;;;;23.80;22.97;;;12.40;99.90;;;;;;5096681;28;20212;-66
2023/10/04 06:52:43;;;;;;;22.87;22.07;;;12.40;99.90;;;;;;5117856;27;20223;-67
2023/10/04 06:55:11;;;;;;;21.57;20.83;;;12.40;99.90;;;;;;5111197;28;20207;-67
2023/10/04 06:57:40;;;;;;;24.90;24.00;;;12.50;99.90;;;;;;5115667;27;20229;-68
2023/10/04 07:00:13;;;;;;;20.57;19.87;;;12.50;99.90;;;;;;5096934;28;20210;-67
2023/10/04 07:02:41;;;;;;;22.43;21.63;;;12.60;99.90;;;;;;5107273;27;20645;-66
2023/10/04 07:05:09;;;;;;;23.07;22.27;;;12.70;99.90;;;;;;5097039;28;20679;-67
2023/10/04 07:07:36;;;;;;;21.30;20.60;;;12.70;99.90;;;;;;5109884;27;20213;-66
2023/10/04 07:10:07;;;;;;;24.03;23.23;;;12.70;99.90;;;;;;5097445;28;20210;-65
2023/10/04 07:12:34;;;;;;;24.73;23.83;;;12.90;99.90;;;;;;5094756;28;20402;-66
2023/10/04 07:15:01;;;;;;;24.57;23.67;;;13.00;99.90;;;;;;5104274;27;20202;-66
2023/10/04 07:17:30;;;;;;;22.58;21.77;;;13.00;99.90;;;;;;5094225;28;20624;-65
2023/10/04 07:19:58;;;;;;;24.27;23.33;;;13.10;99.90;;;;;;5103454;27;20565;-67
2023/10/04 07:22:29;;;;;;;20.73;20.02;;;13.20;99.90;;;;;;5108594;28;20233;-67
2023/10/04 07:24:57;;;;;;;23.33;22.53;;;13.20;99.90;;;;;;5109537;27;20681;-66
2023/10/04 07:27:26;;;;;;;24.67;23.83;;;13.30;99.90;;;;;;5128855;27;20205;-65
2023/10/04 07:29:53;;;;;;;23.30;22.40;;;13.40;99.90;;;;;;5118603;27;20206;-67
2023/10/04 07:32:20;;;;;;;26.60;25.63;;;13.50;99.90;;;;;;5102381;27;20237;-67
2023/10/04 07:34:47;;;;;;;25.87;24.97;;;13.60;99.90;;;;;;5094557;28;20217;-66
2023/10/04 07:37:14;;;;;;;24.43;23.60;;;13.70;99.90;;;;;;5108825;27;20209;-66
2023/10/04 07:39:41;;;;;;;22.60;21.80;;;13.80;99.90;;;;;;5094296;28;20214;-66
2023/10/04 07:42:08;;;;;;;18.40;17.80;;;13.90;99.90;;;;;;5103888;27;20231;-66
2023/10/04 07:44:37;;;;;;;19.00;18.33;;;14.00;99.90;;;;;;5093953;28;20238;-67
2023/10/04 07:47:04;;;;;;;24.70;23.80;;;14.10;99.90;;;;;;5094979;28;20202;-66
2023/10/04 07:49:31;;;;;;;18.60;18.00;;;14.30;99.90;;;;;;5093786;28;20218;-66
2023/10/04 07:51:58;;;;;;;19.23;18.52;;;14.40;99.90;;;;;;5096125;28;20226;-65
2023/10/04 07:54:25;;;;;;;18.60;17.90;;;14.50;99.90;;;;;;5094039;28;20621;-64
2023/10/04 07:56:52;;;;;;;19.55;18.85;;;14.70;99.90;;;;;;5094038;28;20204;-66
2023/10/04 07:59:19;;;;;;;19.77;19.07;;;14.80;99.90;;;;;;5098512;28;20228;-66
2023/10/04 08:01:47;;;;;;;22.63;21.83;;;15.00;99.90;;;;;;5105355;28;20245;-66
2023/10/04 08:04:14;;;;;;;26.57;25.67;;;15.20;99.90;;;;;;5100498;28;20685;-65
2023/10/04 08:06:43;;;;;;;26.25;25.35;;;15.30;99.90;;;;;;5096181;28;20289;-65
2023/10/04 08:09:10;;;;;;;29.10;28.02;;;15.50;99.90;;;;;;5104200;28;20630;-66
2023/10/04 08:11:37;;;;;;;26.30;25.40;;;15.60;99.90;;;;;;5110984;28;20229;-66
2023/10/04 08:14:07;;;;;;;24.35;23.50;;;15.70;99.90;;;;;;5117119;28;20208;-66
2023/10/04 08:16:34;;;;;;;25.03;24.13;;;15.90;99.90;;;;;;5114759;28;20259;-66
2023/10/04 08:19:04;;;;;;;21.83;21.10;;;15.90;99.90;;;;;;5107470;28;20198;-67
2023/10/04 08:21:31;;;;;;;16.27;15.73;;;16.00;99.90;;;;;;5108429;28;20237;-66
2023/10/04 08:23:59;;;;;;;16.53;15.93;;;16.20;99.90;;;;;;5116873;28;20233;-66
2023/10/04 08:26:26;;;;;;;15.43;14.93;;;16.40;99.90;;;;;;5101888;28;20699;-66
2023/10/04 08:28:54;;;;;;;15.30;14.70;;;16.60;99.90;;;;;;5122088;28;20232;-66
2023/10/04 08:31:20;;;;;;;15.63;15.13;;;16.70;99.90;;;;;;5110798;28;20213;-66
2023/10/04 08:33:48;;;;;;;15.35;14.85;;;16.80;99.90;;;;;;5097407;28;20206;-66
2023/10/04 08:36:17;;;;;;;16.70;16.10;;;16.90;99.90;;;;;;5100554;28;20267;-66
2023/10/04 08:38:45;;;;;;;16.77;16.17;;;17.00;99.90;;;;;;5105778;28;20207;-66
2023/10/04 08:41:13;;;;;;;15.10;14.60;;;17.20;99.90;;;;;;5107819;28;20199;-64
2023/10/04 08:43:39;;;;;;;15.60;15.10;;;17.30;99.90;;;;;;5108142;28;20236;-66
2023/10/04 08:46:08;;;;;;;15.50;15.00;;;17.40;99.90;;;;;;5117511;28;20694;-65
2023/10/04 08:48:35;;;;;;;17.02;16.42;;;17.60;99.90;;;;;;5108232;28;20209;-66
2023/10/04 08:51:13;;;;;;;15.30;14.80;;;17.70;99.90;;;;;;5110268;28;20206;-66
2023/10/04 08:53:52;;;;;;;14.80;14.30;;;17.90;99.90;;;;;;5111599;28;20225;-66
2023/10/04 08:56:20;;;;;;;13.80;13.30;;;18.00;99.90;;;;;;5104568;28;20284;-65
2023/10/04 08:58:48;;;;;;;14.80;14.30;;;18.10;99.90;;;;;;5097284;28;20213;-64
2023/10/04 09:01:16;;;;;;;15.03;14.53;;;18.30;99.90;;;;;;5104417;28;20205;-66
2023/10/04 09:03:44;;;;;;;13.10;12.70;;;18.40;99.90;;;;;;5117285;27;20603;-65
2023/10/04 09:06:11;;;;;;;13.13;12.70;;;18.60;99.90;;;;;;5119667;27;20205;-66
2023/10/04 09:08:40;;;;;;;12.50;12.10;;;18.70;99.90;;;;;;5102146;28;20202;-66
2023/10/04 09:11:10;;;;;;;12.98;12.52;;;18.80;99.90;;;;;;5101054;27;20698;-64
2023/10/04 09:13:44;;;;;;;12.87;12.37;;;18.90;99.90;;;;;;5119480;27;20228;-65
2023/10/04 09:16:23;;;;;;;13.20;12.70;;;18.80;99.90;;;;;;5109728;28;20206;-66
2023/10/04 09:19:07;;;;;;;12.93;12.47;;;18.90;99.90;;;;;;5119680;27;20215;-65
2023/10/04 09:21:35;;;;;;;13.90;13.40;;;19.10;99.90;;;;;;5110517;27;20210;-66
2023/10/04 09:24:09;;;;;;;14.07;13.57;;;19.30;99.90;;;;;;5108657;27;20219;-66
2023/10/04 09:26:39;;;;;;;13.77;13.27;;;19.50;99.90;;;;;;5113727;27;20213;-65
2023/10/04 09:29:07;;;;;;;14.98;14.48;;;19.60;99.90;;;;;;5112435;27;20648;-66
2023/10/04 09:31:50;;;;;;;14.85;14.35;;;19.70;99.90;;;;;;5099328;28;20230;-66
2023/10/04 09:34:17;;;;;;;13.40;12.90;;;19.30;99.90;;;;;;5119707;27;20263;-65
2023/10/04 09:36:45;;;;;;;13.18;12.70;;;19.20;99.90;;;;;;5113927;27;20632;-65
2023/10/04 09:39:13;;;;;;;13.38;12.88;;;19.40;99.90;;;;;;5098147;28;20202;-65
2023/10/04 09:41:43;;;;;;;15.13;14.57;;;19.50;99.90;;;;;;5118185;27;20264;-66
2023/10/04 09:44:27;;;;;;;15.63;15.07;;;19.50;99.90;;;;;;5110737;28;20230;-65
2023/10/04 09:46:56;;;;;;;14.48;13.98;;;19.60;99.90;;;;;;5112072;27;20249;-65
2023/10/04 09:49:24;;;;;;;15.68;15.07;;;19.50;99.90;;;;;;5112596;27;20206;-64
2023/10/04 09:51:53;;;;;;;14.75;14.25;;;19.40;99.90;;;;;;5096694;27;20222;-65
2023/10/04 09:54:20;;;;;;;16.08;15.48;;;19.60;99.90;;;;;;5105718;27;20288;-64
2023/10/04 09:56:50;;;;;;;15.82;15.23;;;19.60;99.90;;;;;;5096834;28;20637;-64
2023/10/04 09:59:19;;;;;;;16.27;15.68;;;19.80;99.90;;;;;;5119073;27;20216;-66
2023/10/04 10:01:52;;;;;;;14.95;14.45;;;19.80;99.90;;;;;;5125059;27;20241;-65
2023/10/04 10:04:25;;;;;;;14.77;14.27;;;19.70;99.90;;;;;;5106563;27;20320;-65
2023/10/04 10:07:06;;;;;;;15.18;14.65;;;19.60;99.90;;;;;;5107937;27;20206;-65
2023/10/04 10:09:36;;;;;;;16.63;16.03;;;19.70;99.90;;;;;;5115914;27;20613;-65
2023/10/04 10:12:05;;;;;;;14.75;14.25;;;19.80;99.90;;;;;;5098761;28;20604;-65
2023/10/04 10:14:34;;;;;;;16.20;15.60;;;19.60;99.90;;;;;;5096003;28;20688;-64
2023/10/04 10:17:01;;;;;;;16.43;15.83;;;19.70;99.90;;;;;;5113873;27;20668;-66
2023/10/04 10:19:29;;;;;;;16.67;16.07;;;19.40;99.90;;;;;;5104474;27;20238;-66
2023/10/04 10:22:11;;;;;;;16.13;15.52;;;19.40;99.90;;;;;;5110398;27;20225;-66
2023/10/04 10:24:48;;;;;;;16.40;15.80;;;19.70;99.90;;;;;;5105885;28;20602;-67
2023/10/04 10:27:20;;;;;;;17.38;16.77;;;19.90;99.90;;;;;;5114165;27;20435;-66
2023/10/04 10:29:48;;;;;;;17.23;16.63;;;20.00;99.90;;;;;;5107782;27;20225;-66
2023/10/04 10:32:17;;;;;;;18.23;17.52;;;20.00;99.90;;;;;;5112561;27;20230;-65
2023/10/04 10:34:44;;;;;;;18.85;18.17;;;20.00;99.90;;;;;;5109311;28;20194;-65
2023/10/04 10:37:18;;;;;;;17.70;17.10;;;20.10;99.90;;;;;;5110837;27;20223;-66
2023/10/04 10:39:46;;;;;;;16.95;16.35;;;20.10;99.90;;;;;;5099255;28;20701;-66
2023/10/04 10:42:14;;;;;;;19.83;19.13;;;19.90;99.90;;;;;;5096418;28;20337;-67
2023/10/04 10:44:43;;;;;;;17.85;17.23;;;20.00;99.90;;;;;;5102096;27;20238;-65
2023/10/04 10:47:19;;;;;;;17.95;17.30;;;19.90;99.90;;;;;;5116769;27;20236;-66
2023/10/04 10:49:52;;;;;;;14.48;13.98;;;20.10;99.90;;;;;;5107205;27;20205;-65
2023/10/04 10:52:25;;;;;;;15.20;14.70;;;20.00;99.90;;;;;;5101954;28;20287;-66
2023/10/04 10:54:52;;;;;;;14.38;13.88;;;20.30;99.90;;;;;;5095399;28;20195;-65
2023/10/04 10:57:20;;;;;;;14.95;14.45;;;20.40;99.90;;;;;;5095576;28;20684;-67
2023/10/04 10:59:52;;;;;;;14.70;14.20;;;20.40;99.90;;;;;;5095224;28;20202;-65
2023/10/04 11:02:19;;;;;;;14.07;13.57;;;20.50;99.90;;;;;;5103515;27;20258;-66
2023/10/04 11:04:46;;;;;;;14.55;14.05;;;20.50;99.90;;;;;;5103304;27;20240;-66
2023/10/04 11:07:13;;;;;;;14.68;14.18;;;20.40;99.90;;;;;;5096581;28;20209;-67
2023/10/04 11:09:40;;;;;;;14.98;14.48;;;20.60;99.90;;;;;;5115140;27;20532;-65
2023/10/04 11:12:08;;;;;;;15.10;14.60;;;20.70;99.90;;;;;;5107183;28;20226;-65
2023/10/04 11:14:36;;;;;;;15.07;14.57;;;20.60;99.90;;;;;;5109930;28;20201;-66
2023/10/04 11:17:05;;;;;;;14.60;14.10;;;20.60;99.90;;;;;;5107330;28;20672;-65
2023/10/04 11:19:34;;;;;;;15.57;15.07;;;20.50;99.90;;;;;;5109141;27;20577;-65
2023/10/04 11:22:02;;;;;;;14.20;13.70;;;20.30;99.90;;;;;;5110015;27;20259;-66
2023/10/04 11:24:29;;;;;;;15.35;14.85;;;20.00;99.90;;;;;;5108313;27;20620;-66
2023/10/04 11:26:57;;;;;;;16.05;15.45;;;19.70;99.90;;;;;;5116460;27;20573;-67
2023/10/04 11:29:26;;;;;;;17.58;16.98;;;19.30;99.90;;;;;;5095051;28;20202;-66
2023/10/04 11:31:54;;;;;;;16.75;16.15;;;19.10;99.90;;;;;;5094827;28;20228;-66
2023/10/04 11:34:22;;;;;;;16.02;15.43;;;19.20;99.90;;;;;;5095155;28;20660;-65
2023/10/04 11:36:48;;;;;;;16.88;16.27;;;19.60;99.90;;;;;;5094495;28;20451;-66
2023/10/04 11:39:18;;;;;;;13.52;13.02;;;19.80;99.90;;;;;;5101585;28;20202;-66
2023/10/04 11:41:47;;;;;;;15.35;14.85;;;19.80;99.90;;;;;;5094622;28;20254;-67
2023/10/04 11:44:14;;;;;;;14.32;13.82;;;19.90;99.90;;;;;;5095917;28;20224;-66
2023/10/04 11:46:55;;;;;;;14.13;13.63;;;20.00;99.90;;;;;;5094207;28;20213;-66
2023/10/04 11:49:23;;;;;;;14.38;13.88;;;20.10;99.90;;;;;;5106006;28;20209;-66
2023/10/04 11:51:51;;;;;;;13.43;13.02;;;20.30;99.90;;;;;;5098123;28;20287;-66
2023/10/04 11:54:18;;;;;;;15.38;14.88;;;20.40;99.90;;;;;;5107846;28;20283;-65
2023/10/04 11:56:45;;;;;;;16.02;15.43;;;20.50;99.90;;;;;;5114887;27;20212;-65
2023/10/04 11:59:14;;;;;;;14.20;13.70;;;20.50;99.90;;;;;;5107263;28;20558;-66
2023/10/04 12:01:45;;;;;;;15.93;15.35;;;20.70;99.90;;;;;;5109152;28;20268;-66
2023/10/04 12:04:14;;;;;;;17.48;16.88;;;20.40;99.90;;;;;;5129421;28;20240;-66
2023/10/04 12:06:45;;;;;;;16.33;15.75;;;20.30;99.90;;;;;;5127392;28;20472;-66
2023/10/04 12:09:13;;;;;;;17.52;16.92;;;20.20;99.90;;;;;;5123073;28;20190;-67
2023/10/04 12:11:40;;;;;;;16.53;15.93;;;20.30;99.90;;;;;;5127082;28;20221;-66
2023/10/04 12:14:09;;;;;;;15.43;14.83;;;20.30;99.90;;;;;;5116954;28;20216;-66
2023/10/04 12:16:37;;;;;;;13.68;13.18;;;20.20;99.90;;;;;;5113300;28;20202;-66
2023/10/04 12:19:05;;;;;;;17.30;16.70;;;20.20;99.90;;;;;;5103376;28;20213;-66
2023/10/04 12:21:31;;;;;;;14.57;14.00;;;20.30;99.90;;;;;;5102071;28;20242;-68
2023/10/04 12:24:00;;;;;;;12.75;12.30;;;20.30;99.90;;;;;;5127522;27;20240;-64
2023/10/04 12:26:27;;;;;;;13.15;12.65;;;20.30;99.90;;;;;;5116342;27;20214;-65
2023/10/04 12:28:54;;;;;;;13.63;13.13;;;20.30;99.90;;;;;;5106241;28;20218;-67
2023/10/04 12:31:21;;;;;;;13.10;12.60;;;20.50;99.90;;;;;;5115133;27;20205;-66
2023/10/04 12:33:47;;;;;;;12.13;11.70;;;20.50;99.90;;;;;;5107037;28;20214;-66
2023/10/04 12:36:15;;;;;;;12.20;11.80;;;20.60;99.90;;;;;;5112925;27;20712;-66